sensor_id;sensor_type;location;lat;lon;timestamp;P1;durP1;ratioP1;P2;durP2;ratioP2
71947;SDS011;63257;55.082;38.772;2023-08-20T00:01:38;19.08;;;12.00;;
71947;SDS011;63257;55.082;38.772;2023-08-20T00:04:04;20.02;;;12.38;;
71947;SDS011;63257;55.082;38.772;2023-08-20T00:06:30;17.85;;;12.57;;
71947;SDS011;63257;55.082;38.772;2023-08-20T00:08:56;18.77;;;12.23;;
71947;SDS011;63257;55.082;38.772;2023-08-20T00:11:22;20.98;;;13.00;;
71947;SDS011;63257;55.082;38.772;2023-08-20T00:13:48;19.97;;;12.70;;
71947;SDS011;63257;55.082;38.772;2023-08-20T00:16:14;18.90;;;13.52;;
71947;SDS011;63257;55.082;38.772;2023-08-20T00:18:40;18.77;;;13.13;;
71947;SDS011;63257;55.082;38.772;2023-08-20T00:21:06;21.60;;;13.97;;
71947;SDS011;63257;55.082;38.772;2023-08-20T00:23:33;21.58;;;14.27;;
71947;SDS011;63257;55.082;38.772;2023-08-20T00:26:00;22.10;;;14.75;;
71947;SDS011;63257;55.082;38.772;2023-08-20T00:28:27;22.30;;;14.45;;
71947;SDS011;63257;55.082;38.772;2023-08-20T00:30:53;22.73;;;14.43;;
71947;SDS011;63257;55.082;38.772;2023-08-20T00:33:19;20.90;;;15.02;;
71947;SDS011;63257;55.082;38.772;2023-08-20T00:35:45;23.33;;;15.50;;
71947;SDS011;63257;55.082;38.772;2023-08-20T00:38:11;21.60;;;15.00;;
71947;SDS011;63257;55.082;38.772;2023-08-20T00:40:36;23.77;;;14.73;;
71947;SDS011;63257;55.082;38.772;2023-08-20T00:43:02;22.13;;;13.90;;
71947;SDS011;63257;55.082;38.772;2023-08-20T00:45:28;23.30;;;14.63;;
71947;SDS011;63257;55.082;38.772;2023-08-20T00:47:55;22.80;;;14.55;;
71947;SDS011;63257;55.082;38.772;2023-08-20T00:50:22;20.40;;;13.77;;
71947;SDS011;63257;55.082;38.772;2023-08-20T00:52:48;20.63;;;14.57;;
71947;SDS011;63257;55.082;38.772;2023-08-20T00:55:14;21.48;;;14.35;;
71947;SDS011;63257;55.082;38.772;2023-08-20T00:57:40;22.25;;;13.98;;
71947;SDS011;63257;55.082;38.772;2023-08-20T01:00:07;21.02;;;14.57;;
71947;SDS011;63257;55.082;38.772;2023-08-20T01:02:37;24.10;;;15.73;;
71947;SDS011;63257;55.082;38.772;2023-08-20T01:05:06;22.40;;;15.80;;
71947;SDS011;63257;55.082;38.772;2023-08-20T01:12:56;23.25;;;15.63;;
71947;SDS011;63257;55.082;38.772;2023-08-20T01:15:23;26.10;;;15.97;;
71947;SDS011;63257;55.082;38.772;2023-08-20T01:17:49;25.88;;;16.20;;
71947;SDS011;63257;55.082;38.772;2023-08-20T01:20:15;25.77;;;16.60;;
71947;SDS011;63257;55.082;38.772;2023-08-20T01:25:36;24.83;;;16.80;;
71947;SDS011;63257;55.082;38.772;2023-08-20T01:30:48;26.83;;;17.40;;
71947;SDS011;63257;55.082;38.772;2023-08-20T01:33:14;24.80;;;16.52;;
71947;SDS011;63257;55.082;38.772;2023-08-20T01:35:41;27.23;;;18.02;;
71947;SDS011;63257;55.082;38.772;2023-08-20T01:38:14;27.75;;;17.63;;
71947;SDS011;63257;55.082;38.772;2023-08-20T01:40:40;25.75;;;16.85;;
71947;SDS011;63257;55.082;38.772;2023-08-20T01:43:06;25.30;;;17.33;;
71947;SDS011;63257;55.082;38.772;2023-08-20T01:45:33;28.65;;;18.00;;
71947;SDS011;63257;55.082;38.772;2023-08-20T01:47:58;26.02;;;17.48;;
71947;SDS011;63257;55.082;38.772;2023-08-20T01:50:25;28.05;;;18.77;;
71947;SDS011;63257;55.082;38.772;2023-08-20T01:52:51;26.60;;;18.33;;
71947;SDS011;63257;55.082;38.772;2023-08-20T01:55:17;27.85;;;17.55;;
71947;SDS011;63257;55.082;38.772;2023-08-20T01:57:42;26.95;;;18.40;;
71947;SDS011;63257;55.082;38.772;2023-08-20T02:00:08;32.30;;;19.20;;
71947;SDS011;63257;55.082;38.772;2023-08-20T02:02:41;30.73;;;20.42;;
71947;SDS011;63257;55.082;38.772;2023-08-20T02:05:08;29.15;;;19.48;;
71947;SDS011;63257;55.082;38.772;2023-08-20T02:07:38;30.98;;;20.02;;
71947;SDS011;63257;55.082;38.772;2023-08-20T02:10:04;31.70;;;20.13;;
71947;SDS011;63257;55.082;38.772;2023-08-20T02:12:32;27.50;;;18.70;;
71947;SDS011;63257;55.082;38.772;2023-08-20T02:14:58;31.70;;;20.98;;
71947;SDS011;63257;55.082;38.772;2023-08-20T02:17:24;28.83;;;19.85;;
71947;SDS011;63257;55.082;38.772;2023-08-20T02:19:50;30.47;;;20.07;;
71947;SDS011;63257;55.082;38.772;2023-08-20T02:22:16;30.65;;;20.27;;
71947;SDS011;63257;55.082;38.772;2023-08-20T02:24:43;29.30;;;19.63;;
71947;SDS011;63257;55.082;38.772;2023-08-20T02:27:09;31.97;;;20.00;;
71947;SDS011;63257;55.082;38.772;2023-08-20T02:29:35;29.48;;;19.58;;
71947;SDS011;63257;55.082;38.772;2023-08-20T02:32:01;30.15;;;20.05;;
71947;SDS011;63257;55.082;38.772;2023-08-20T02:34:29;32.60;;;20.65;;
71947;SDS011;63257;55.082;38.772;2023-08-20T02:36:55;29.87;;;20.57;;
71947;SDS011;63257;55.082;38.772;2023-08-20T02:39:22;32.88;;;20.63;;
71947;SDS011;63257;55.082;38.772;2023-08-20T02:41:49;35.58;;;20.98;;
71947;SDS011;63257;55.082;38.772;2023-08-20T02:44:15;32.38;;;21.15;;
71947;SDS011;63257;55.082;38.772;2023-08-20T02:46:41;34.47;;;21.00;;
71947;SDS011;63257;55.082;38.772;2023-08-20T02:49:10;32.80;;;21.00;;
71947;SDS011;63257;55.082;38.772;2023-08-20T02:51:36;32.80;;;21.50;;
71947;SDS011;63257;55.082;38.772;2023-08-20T02:54:02;34.20;;;21.73;;
71947;SDS011;63257;55.082;38.772;2023-08-20T02:56:28;32.75;;;21.67;;
71947;SDS011;63257;55.082;38.772;2023-08-20T02:58:54;33.58;;;21.67;;
71947;SDS011;63257;55.082;38.772;2023-08-20T03:01:20;34.43;;;21.07;;
71947;SDS011;63257;55.082;38.772;2023-08-20T03:03:47;35.65;;;22.95;;
71947;SDS011;63257;55.082;38.772;2023-08-20T03:06:13;33.28;;;22.80;;
71947;SDS011;63257;55.082;38.772;2023-08-20T03:08:39;34.97;;;22.35;;
71947;SDS011;63257;55.082;38.772;2023-08-20T03:11:05;36.60;;;23.77;;
71947;SDS011;63257;55.082;38.772;2023-08-20T03:13:32;34.08;;;22.95;;
71947;SDS011;63257;55.082;38.772;2023-08-20T03:15:58;36.92;;;23.65;;
71947;SDS011;63257;55.082;38.772;2023-08-20T03:18:24;34.08;;;23.10;;
71947;SDS011;63257;55.082;38.772;2023-08-20T03:20:49;34.27;;;23.43;;
71947;SDS011;63257;55.082;38.772;2023-08-20T03:23:15;34.88;;;22.95;;
71947;SDS011;63257;55.082;38.772;2023-08-20T03:25:41;35.13;;;23.50;;
71947;SDS011;63257;55.082;38.772;2023-08-20T03:28:07;33.10;;;22.73;;
71947;SDS011;63257;55.082;38.772;2023-08-20T03:30:33;34.20;;;23.20;;
71947;SDS011;63257;55.082;38.772;2023-08-20T03:32:59;32.05;;;21.92;;
71947;SDS011;63257;55.082;38.772;2023-08-20T03:35:25;33.50;;;22.50;;
71947;SDS011;63257;55.082;38.772;2023-08-20T03:37:52;31.48;;;21.08;;
71947;SDS011;63257;55.082;38.772;2023-08-20T03:40:18;31.17;;;21.08;;
71947;SDS011;63257;55.082;38.772;2023-08-20T03:42:44;29.10;;;19.83;;
71947;SDS011;63257;55.082;38.772;2023-08-20T03:45:09;28.40;;;19.73;;
71947;SDS011;63257;55.082;38.772;2023-08-20T03:47:35;26.77;;;19.40;;
71947;SDS011;63257;55.082;38.772;2023-08-20T03:50:04;27.02;;;18.15;;
71947;SDS011;63257;55.082;38.772;2023-08-20T03:52:30;27.10;;;17.60;;
71947;SDS011;63257;55.082;38.772;2023-08-20T03:54:56;37.20;;;24.25;;
71947;SDS011;63257;55.082;38.772;2023-08-20T03:57:22;25.80;;;17.93;;
71947;SDS011;63257;55.082;38.772;2023-08-20T03:59:49;23.73;;;16.60;;
71947;SDS011;63257;55.082;38.772;2023-08-20T04:02:15;21.48;;;16.45;;
71947;SDS011;63257;55.082;38.772;2023-08-20T04:04:41;22.00;;;15.43;;
71947;SDS011;63257;55.082;38.772;2023-08-20T04:07:07;21.63;;;15.75;;
71947;SDS011;63257;55.082;38.772;2023-08-20T04:09:33;22.53;;;15.80;;
71947;SDS011;63257;55.082;38.772;2023-08-20T04:12:00;23.17;;;15.95;;
71947;SDS011;63257;55.082;38.772;2023-08-20T04:14:26;22.70;;;15.73;;
71947;SDS011;63257;55.082;38.772;2023-08-20T04:16:52;22.13;;;15.82;;
71947;SDS011;63257;55.082;38.772;2023-08-20T04:19:18;20.27;;;15.07;;
71947;SDS011;63257;55.082;38.772;2023-08-20T04:21:44;22.05;;;14.93;;
71947;SDS011;63257;55.082;38.772;2023-08-20T04:24:10;23.70;;;15.63;;
71947;SDS011;63257;55.082;38.772;2023-08-20T04:26:36;21.23;;;15.13;;
71947;SDS011;63257;55.082;38.772;2023-08-20T04:29:02;24.23;;;16.17;;
71947;SDS011;63257;55.082;38.772;2023-08-20T04:31:29;27.17;;;18.23;;
71947;SDS011;63257;55.082;38.772;2023-08-20T04:34:01;26.90;;;16.83;;
71947;SDS011;63257;55.082;38.772;2023-08-20T04:36:44;25.08;;;16.63;;
71947;SDS011;63257;55.082;38.772;2023-08-20T04:39:10;21.83;;;15.10;;
71947;SDS011;63257;55.082;38.772;2023-08-20T04:41:38;25.02;;;16.80;;
71947;SDS011;63257;55.082;38.772;2023-08-20T04:44:05;21.97;;;14.57;;
71947;SDS011;63257;55.082;38.772;2023-08-20T04:46:31;24.45;;;15.52;;
71947;SDS011;63257;55.082;38.772;2023-08-20T04:48:57;25.23;;;15.48;;
71947;SDS011;63257;55.082;38.772;2023-08-20T04:51:23;27.43;;;17.13;;
71947;SDS011;63257;55.082;38.772;2023-08-20T04:53:49;29.95;;;17.85;;
71947;SDS011;63257;55.082;38.772;2023-08-20T04:56:14;27.10;;;16.97;;
71947;SDS011;63257;55.082;38.772;2023-08-20T04:58:40;25.17;;;17.38;;
71947;SDS011;63257;55.082;38.772;2023-08-20T05:01:06;25.23;;;16.80;;
71947;SDS011;63257;55.082;38.772;2023-08-20T05:03:34;24.45;;;15.95;;
71947;SDS011;63257;55.082;38.772;2023-08-20T05:06:00;23.50;;;14.57;;
71947;SDS011;63257;55.082;38.772;2023-08-20T05:08:27;20.27;;;13.98;;
71947;SDS011;63257;55.082;38.772;2023-08-20T05:10:53;14.87;;;9.23;;
71947;SDS011;63257;55.082;38.772;2023-08-20T05:13:19;14.32;;;8.18;;
71947;SDS011;63257;55.082;38.772;2023-08-20T05:15:47;12.55;;;8.40;;
71947;SDS011;63257;55.082;38.772;2023-08-20T05:18:13;13.80;;;7.87;;
71947;SDS011;63257;55.082;38.772;2023-08-20T05:20:39;16.33;;;8.15;;
71947;SDS011;63257;55.082;38.772;2023-08-20T05:23:05;15.05;;;8.32;;
71947;SDS011;63257;55.082;38.772;2023-08-20T05:25:31;14.70;;;8.20;;
71947;SDS011;63257;55.082;38.772;2023-08-20T05:27:57;11.10;;;6.50;;
71947;SDS011;63257;55.082;38.772;2023-08-20T05:30:23;14.77;;;5.68;;
71947;SDS011;63257;55.082;38.772;2023-08-20T05:32:49;12.47;;;6.53;;
71947;SDS011;63257;55.082;38.772;2023-08-20T05:35:15;13.15;;;6.30;;
71947;SDS011;63257;55.082;38.772;2023-08-20T05:37:42;12.73;;;6.47;;
71947;SDS011;63257;55.082;38.772;2023-08-20T05:40:08;15.52;;;7.30;;
71947;SDS011;63257;55.082;38.772;2023-08-20T05:42:34;11.95;;;7.38;;
71947;SDS011;63257;55.082;38.772;2023-08-20T05:45:04;13.03;;;6.17;;
71947;SDS011;63257;55.082;38.772;2023-08-20T05:47:31;10.65;;;6.45;;
71947;SDS011;63257;55.082;38.772;2023-08-20T05:49:57;11.13;;;5.90;;
71947;SDS011;63257;55.082;38.772;2023-08-20T05:52:23;10.33;;;6.07;;
71947;SDS011;63257;55.082;38.772;2023-08-20T05:54:49;12.90;;;6.68;;
71947;SDS011;63257;55.082;38.772;2023-08-20T05:57:15;11.35;;;7.03;;
71947;SDS011;63257;55.082;38.772;2023-08-20T05:59:42;17.90;;;9.37;;
71947;SDS011;63257;55.082;38.772;2023-08-20T06:02:07;14.32;;;8.70;;
71947;SDS011;63257;55.082;38.772;2023-08-20T06:04:33;10.07;;;6.22;;
71947;SDS011;63257;55.082;38.772;2023-08-20T06:06:59;12.27;;;6.77;;
71947;SDS011;63257;55.082;38.772;2023-08-20T06:09:25;11.43;;;6.88;;
71947;SDS011;63257;55.082;38.772;2023-08-20T06:11:51;15.47;;;7.97;;
71947;SDS011;63257;55.082;38.772;2023-08-20T06:14:17;15.20;;;8.32;;
71947;SDS011;63257;55.082;38.772;2023-08-20T06:16:42;13.65;;;8.30;;
71947;SDS011;63257;55.082;38.772;2023-08-20T06:19:09;16.42;;;8.70;;
71947;SDS011;63257;55.082;38.772;2023-08-20T06:21:35;14.37;;;8.03;;
71947;SDS011;63257;55.082;38.772;2023-08-20T06:24:01;13.98;;;8.57;;
71947;SDS011;63257;55.082;38.772;2023-08-20T06:26:27;14.37;;;7.80;;
71947;SDS011;63257;55.082;38.772;2023-08-20T06:28:52;12.55;;;8.07;;
71947;SDS011;63257;55.082;38.772;2023-08-20T06:31:18;15.63;;;9.57;;
71947;SDS011;63257;55.082;38.772;2023-08-20T06:33:44;16.95;;;9.15;;
71947;SDS011;63257;55.082;38.772;2023-08-20T06:36:10;17.37;;;9.73;;
71947;SDS011;63257;55.082;38.772;2023-08-20T06:38:35;16.05;;;8.45;;
71947;SDS011;63257;55.082;38.772;2023-08-20T06:41:01;16.20;;;8.93;;
71947;SDS011;63257;55.082;38.772;2023-08-20T06:43:27;18.45;;;9.13;;
71947;SDS011;63257;55.082;38.772;2023-08-20T06:45:53;15.32;;;8.30;;
71947;SDS011;63257;55.082;38.772;2023-08-20T06:48:19;15.60;;;8.82;;
71947;SDS011;63257;55.082;38.772;2023-08-20T06:50:47;18.17;;;8.73;;
71947;SDS011;63257;55.082;38.772;2023-08-20T06:53:13;16.73;;;9.00;;
71947;SDS011;63257;55.082;38.772;2023-08-20T06:55:39;16.20;;;8.73;;
71947;SDS011;63257;55.082;38.772;2023-08-20T06:58:04;15.80;;;9.50;;
71947;SDS011;63257;55.082;38.772;2023-08-20T07:00:30;16.50;;;9.70;;
71947;SDS011;63257;55.082;38.772;2023-08-20T07:02:56;16.63;;;9.65;;
71947;SDS011;63257;55.082;38.772;2023-08-20T07:05:22;16.83;;;10.77;;
71947;SDS011;63257;55.082;38.772;2023-08-20T07:07:48;16.70;;;10.20;;
71947;SDS011;63257;55.082;38.772;2023-08-20T07:10:13;15.77;;;10.37;;
71947;SDS011;63257;55.082;38.772;2023-08-20T07:12:39;17.73;;;10.57;;
71947;SDS011;63257;55.082;38.772;2023-08-20T07:15:05;17.90;;;10.40;;
71947;SDS011;63257;55.082;38.772;2023-08-20T07:17:32;14.98;;;10.25;;
71947;SDS011;63257;55.082;38.772;2023-08-20T07:19:58;16.00;;;9.75;;
71947;SDS011;63257;55.082;38.772;2023-08-20T07:22:23;15.87;;;10.57;;
71947;SDS011;63257;55.082;38.772;2023-08-20T07:24:49;20.17;;;12.35;;
71947;SDS011;63257;55.082;38.772;2023-08-20T07:27:16;19.23;;;12.00;;
71947;SDS011;63257;55.082;38.772;2023-08-20T07:29:41;17.92;;;11.20;;
71947;SDS011;63257;55.082;38.772;2023-08-20T07:32:07;19.67;;;13.27;;
71947;SDS011;63257;55.082;38.772;2023-08-20T07:34:33;18.70;;;12.35;;
71947;SDS011;63257;55.082;38.772;2023-08-20T07:37:00;15.53;;;10.67;;
71947;SDS011;63257;55.082;38.772;2023-08-20T07:39:26;15.50;;;10.30;;
71947;SDS011;63257;55.082;38.772;2023-08-20T07:41:52;14.70;;;10.27;;
71947;SDS011;63257;55.082;38.772;2023-08-20T07:44:18;15.87;;;9.97;;
71947;SDS011;63257;55.082;38.772;2023-08-20T07:46:44;45.38;;;32.33;;
71947;SDS011;63257;55.082;38.772;2023-08-20T07:49:10;16.08;;;10.68;;
71947;SDS011;63257;55.082;38.772;2023-08-20T07:51:36;13.77;;;10.17;;
71947;SDS011;63257;55.082;38.772;2023-08-20T07:54:01;15.20;;;10.75;;
71947;SDS011;63257;55.082;38.772;2023-08-20T07:56:27;12.47;;;8.97;;
71947;SDS011;63257;55.082;38.772;2023-08-20T07:58:53;10.38;;;7.60;;
71947;SDS011;63257;55.082;38.772;2023-08-20T08:01:19;12.20;;;7.65;;
71947;SDS011;63257;55.082;38.772;2023-08-20T08:03:45;12.35;;;7.93;;
71947;SDS011;63257;55.082;38.772;2023-08-20T08:06:10;11.07;;;8.15;;
71947;SDS011;63257;55.082;38.772;2023-08-20T08:08:37;10.73;;;7.83;;
71947;SDS011;63257;55.082;38.772;2023-08-20T08:11:07;9.40;;;7.18;;
71947;SDS011;63257;55.082;38.772;2023-08-20T08:13:33;11.63;;;8.00;;
71947;SDS011;63257;55.082;38.772;2023-08-20T08:15:59;20.75;;;14.32;;
71947;SDS011;63257;55.082;38.772;2023-08-20T08:18:24;11.45;;;7.97;;
71947;SDS011;63257;55.082;38.772;2023-08-20T08:20:50;10.37;;;7.10;;
71947;SDS011;63257;55.082;38.772;2023-08-20T08:23:16;14.10;;;8.57;;
71947;SDS011;63257;55.082;38.772;2023-08-20T08:25:42;11.47;;;7.97;;
71947;SDS011;63257;55.082;38.772;2023-08-20T08:28:08;9.90;;;7.00;;
71947;SDS011;63257;55.082;38.772;2023-08-20T08:30:34;9.80;;;6.70;;
71947;SDS011;63257;55.082;38.772;2023-08-20T08:32:59;9.73;;;6.88;;
71947;SDS011;63257;55.082;38.772;2023-08-20T08:35:25;9.13;;;6.88;;
71947;SDS011;63257;55.082;38.772;2023-08-20T08:37:51;11.63;;;7.67;;
71947;SDS011;63257;55.082;38.772;2023-08-20T08:40:17;9.68;;;6.90;;
71947;SDS011;63257;55.082;38.772;2023-08-20T08:42:47;9.07;;;6.82;;
71947;SDS011;63257;55.082;38.772;2023-08-20T08:45:15;9.63;;;6.50;;
71947;SDS011;63257;55.082;38.772;2023-08-20T08:47:44;9.82;;;7.03;;
71947;SDS011;63257;55.082;38.772;2023-08-20T08:50:10;9.70;;;6.07;;
71947;SDS011;63257;55.082;38.772;2023-08-20T08:52:36;8.95;;;6.78;;
71947;SDS011;63257;55.082;38.772;2023-08-20T08:55:03;10.60;;;6.63;;
71947;SDS011;63257;55.082;38.772;2023-08-20T08:57:30;8.27;;;5.70;;
71947;SDS011;63257;55.082;38.772;2023-08-20T08:59:56;7.82;;;5.68;;
71947;SDS011;63257;55.082;38.772;2023-08-20T09:02:23;8.27;;;5.80;;
71947;SDS011;63257;55.082;38.772;2023-08-20T09:04:48;10.57;;;7.50;;
71947;SDS011;63257;55.082;38.772;2023-08-20T09:07:15;8.90;;;6.35;;
71947;SDS011;63257;55.082;38.772;2023-08-20T09:09:44;8.48;;;6.50;;
71947;SDS011;63257;55.082;38.772;2023-08-20T09:12:15;9.43;;;6.68;;
71947;SDS011;63257;55.082;38.772;2023-08-20T09:14:48;8.60;;;6.53;;
71947;SDS011;63257;55.082;38.772;2023-08-20T09:17:15;9.57;;;6.40;;
71947;SDS011;63257;55.082;38.772;2023-08-20T09:19:42;8.95;;;6.25;;
71947;SDS011;63257;55.082;38.772;2023-08-20T09:22:13;34.25;;;26.33;;
71947;SDS011;63257;55.082;38.772;2023-08-20T09:24:41;31.52;;;23.70;;
71947;SDS011;63257;55.082;38.772;2023-08-20T09:27:11;10.95;;;6.97;;
71947;SDS011;63257;55.082;38.772;2023-08-20T09:29:44;8.27;;;6.03;;
71947;SDS011;63257;55.082;38.772;2023-08-20T09:34:41;8.85;;;6.07;;
71947;SDS011;63257;55.082;38.772;2023-08-20T09:37:10;11.73;;;7.30;;
71947;SDS011;63257;55.082;38.772;2023-08-20T09:39:37;7.90;;;5.57;;
71947;SDS011;63257;55.082;38.772;2023-08-20T09:42:04;9.20;;;6.72;;
71947;SDS011;63257;55.082;38.772;2023-08-20T09:44:34;8.23;;;5.95;;
71947;SDS011;63257;55.082;38.772;2023-08-20T09:47:02;10.27;;;6.88;;
71947;SDS011;63257;55.082;38.772;2023-08-20T09:49:32;12.47;;;6.70;;
71947;SDS011;63257;55.082;38.772;2023-08-20T09:52:04;9.27;;;6.32;;
71947;SDS011;63257;55.082;38.772;2023-08-20T09:57:06;9.38;;;6.70;;
71947;SDS011;63257;55.082;38.772;2023-08-20T09:59:37;11.32;;;6.38;;
71947;SDS011;63257;55.082;38.772;2023-08-20T10:02:04;8.53;;;6.27;;
71947;SDS011;63257;55.082;38.772;2023-08-20T10:04:33;10.57;;;8.02;;
71947;SDS011;63257;55.082;38.772;2023-08-20T10:06:59;8.20;;;5.85;;
71947;SDS011;63257;55.082;38.772;2023-08-20T10:09:25;10.30;;;6.13;;
71947;SDS011;63257;55.082;38.772;2023-08-20T10:11:51;9.97;;;6.43;;
71947;SDS011;63257;55.082;38.772;2023-08-20T10:14:17;7.93;;;5.57;;
71947;SDS011;63257;55.082;38.772;2023-08-20T10:16:43;7.93;;;6.00;;
71947;SDS011;63257;55.082;38.772;2023-08-20T10:19:09;8.73;;;5.63;;
71947;SDS011;63257;55.082;38.772;2023-08-20T10:21:35;8.07;;;5.32;;
71947;SDS011;63257;55.082;38.772;2023-08-20T10:24:04;8.97;;;5.57;;
71947;SDS011;63257;55.082;38.772;2023-08-20T10:26:33;12.77;;;9.73;;
71947;SDS011;63257;55.082;38.772;2023-08-20T10:32:10;11.23;;;6.78;;
71947;SDS011;63257;55.082;38.772;2023-08-20T10:34:38;7.93;;;5.77;;
71947;SDS011;63257;55.082;38.772;2023-08-20T10:37:14;9.40;;;6.20;;
71947;SDS011;63257;55.082;38.772;2023-08-20T10:39:40;7.57;;;5.53;;
71947;SDS011;63257;55.082;38.772;2023-08-20T10:47:47;9.50;;;5.67;;
71947;SDS011;63257;55.082;38.772;2023-08-20T10:50:17;8.35;;;5.82;;
71947;SDS011;63257;55.082;38.772;2023-08-20T10:52:48;8.13;;;5.97;;
71947;SDS011;63257;55.082;38.772;2023-08-20T10:55:15;9.07;;;6.15;;
71947;SDS011;63257;55.082;38.772;2023-08-20T10:57:41;8.38;;;5.65;;
71947;SDS011;63257;55.082;38.772;2023-08-20T11:00:07;7.87;;;5.90;;
71947;SDS011;63257;55.082;38.772;2023-08-20T11:02:38;8.30;;;6.03;;
71947;SDS011;63257;55.082;38.772;2023-08-20T11:05:09;8.90;;;6.05;;
71947;SDS011;63257;55.082;38.772;2023-08-20T11:07:45;8.45;;;6.03;;
71947;SDS011;63257;55.082;38.772;2023-08-20T11:10:16;13.00;;;9.63;;
71947;SDS011;63257;55.082;38.772;2023-08-20T11:12:42;8.85;;;6.72;;
71947;SDS011;63257;55.082;38.772;2023-08-20T11:15:10;8.95;;;6.78;;
71947;SDS011;63257;55.082;38.772;2023-08-20T11:17:47;8.65;;;6.50;;
71947;SDS011;63257;55.082;38.772;2023-08-20T11:20:16;9.77;;;7.05;;
71947;SDS011;63257;55.082;38.772;2023-08-20T11:22:42;10.47;;;6.60;;
71947;SDS011;63257;55.082;38.772;2023-08-20T11:25:11;8.27;;;6.65;;
71947;SDS011;63257;55.082;38.772;2023-08-20T11:27:42;8.10;;;6.75;;
71947;SDS011;63257;55.082;38.772;2023-08-20T11:30:09;8.95;;;6.85;;
71947;SDS011;63257;55.082;38.772;2023-08-20T11:32:37;8.77;;;6.93;;
71947;SDS011;63257;55.082;38.772;2023-08-20T11:35:04;8.90;;;6.93;;
71947;SDS011;63257;55.082;38.772;2023-08-20T11:37:30;8.00;;;6.80;;
71947;SDS011;63257;55.082;38.772;2023-08-20T11:39:56;41.80;;;31.63;;
71947;SDS011;63257;55.082;38.772;2023-08-20T11:42:22;10.80;;;7.40;;
71947;SDS011;63257;55.082;38.772;2023-08-20T11:44:48;8.60;;;7.45;;
71947;SDS011;63257;55.082;38.772;2023-08-20T11:47:18;8.20;;;6.75;;
71947;SDS011;63257;55.082;38.772;2023-08-20T11:49:44;8.43;;;6.78;;
71947;SDS011;63257;55.082;38.772;2023-08-20T11:52:10;8.68;;;7.25;;
71947;SDS011;63257;55.082;38.772;2023-08-20T11:54:39;8.90;;;7.57;;
71947;SDS011;63257;55.082;38.772;2023-08-20T11:57:05;9.45;;;7.03;;
71947;SDS011;63257;55.082;38.772;2023-08-20T11:59:33;8.90;;;7.20;;
71947;SDS011;63257;55.082;38.772;2023-08-20T12:02:00;8.90;;;6.93;;
71947;SDS011;63257;55.082;38.772;2023-08-20T12:04:29;9.30;;;7.13;;
71947;SDS011;63257;55.082;38.772;2023-08-20T12:07:03;8.77;;;6.80;;
71947;SDS011;63257;55.082;38.772;2023-08-20T12:09:49;8.10;;;6.63;;
71947;SDS011;63257;55.082;38.772;2023-08-20T12:12:16;9.27;;;7.13;;
71947;SDS011;63257;55.082;38.772;2023-08-20T12:14:45;9.50;;;7.13;;
71947;SDS011;63257;55.082;38.772;2023-08-20T12:17:11;10.10;;;6.77;;
71947;SDS011;63257;55.082;38.772;2023-08-20T12:19:37;8.88;;;6.82;;
71947;SDS011;63257;55.082;38.772;2023-08-20T12:22:03;9.57;;;7.05;;
71947;SDS011;63257;55.082;38.772;2023-08-20T12:24:29;9.07;;;6.60;;
71947;SDS011;63257;55.082;38.772;2023-08-20T12:26:55;11.40;;;7.18;;
71947;SDS011;63257;55.082;38.772;2023-08-20T12:29:20;9.63;;;6.50;;
71947;SDS011;63257;55.082;38.772;2023-08-20T12:31:46;9.60;;;6.80;;
71947;SDS011;63257;55.082;38.772;2023-08-20T12:34:12;8.90;;;6.50;;
71947;SDS011;63257;55.082;38.772;2023-08-20T12:36:38;8.37;;;6.90;;
71947;SDS011;63257;55.082;38.772;2023-08-20T12:39:04;10.57;;;6.97;;
71947;SDS011;63257;55.082;38.772;2023-08-20T12:41:30;9.57;;;7.40;;
71947;SDS011;63257;55.082;38.772;2023-08-20T12:43:57;9.83;;;7.53;;
71947;SDS011;63257;55.082;38.772;2023-08-20T12:46:23;11.43;;;7.60;;
71947;SDS011;63257;55.082;38.772;2023-08-20T12:48:49;12.38;;;7.60;;
71947;SDS011;63257;55.082;38.772;2023-08-20T12:51:16;11.63;;;7.73;;
71947;SDS011;63257;55.082;38.772;2023-08-20T12:53:43;10.70;;;7.45;;
71947;SDS011;63257;55.082;38.772;2023-08-20T12:56:09;25.38;;;20.77;;
71947;SDS011;63257;55.082;38.772;2023-08-20T12:58:35;10.65;;;7.78;;
71947;SDS011;63257;55.082;38.772;2023-08-20T13:01:01;11.50;;;7.60;;
71947;SDS011;63257;55.082;38.772;2023-08-20T13:03:28;10.75;;;8.50;;
71947;SDS011;63257;55.082;38.772;2023-08-20T13:05:54;11.50;;;8.02;;
71947;SDS011;63257;55.082;38.772;2023-08-20T13:08:22;11.95;;;8.15;;
71947;SDS011;63257;55.082;38.772;2023-08-20T13:10:50;11.23;;;8.00;;
71947;SDS011;63257;55.082;38.772;2023-08-20T13:13:20;11.48;;;7.68;;
71947;SDS011;63257;55.082;38.772;2023-08-20T13:15:48;7.97;;;5.10;;
71947;SDS011;63257;55.082;38.772;2023-08-20T13:18:14;8.32;;;3.17;;
71947;SDS011;63257;55.082;38.772;2023-08-20T13:20:41;6.50;;;3.13;;
71947;SDS011;63257;55.082;38.772;2023-08-20T13:23:07;6.37;;;2.97;;
71947;SDS011;63257;55.082;38.772;2023-08-20T13:25:33;6.68;;;3.38;;
71947;SDS011;63257;55.082;38.772;2023-08-20T13:27:59;5.35;;;3.20;;
71947;SDS011;63257;55.082;38.772;2023-08-20T13:30:25;6.90;;;3.70;;
71947;SDS011;63257;55.082;38.772;2023-08-20T13:32:50;8.57;;;3.30;;
71947;SDS011;63257;55.082;38.772;2023-08-20T13:35:16;8.47;;;4.07;;
71947;SDS011;63257;55.082;38.772;2023-08-20T13:37:43;9.40;;;3.38;;
71947;SDS011;63257;55.082;38.772;2023-08-20T13:40:10;7.43;;;4.05;;
71947;SDS011;63257;55.082;38.772;2023-08-20T13:42:36;7.70;;;4.00;;
71947;SDS011;63257;55.082;38.772;2023-08-20T13:45:02;8.40;;;4.22;;
71947;SDS011;63257;55.082;38.772;2023-08-20T13:47:30;7.07;;;3.83;;
71947;SDS011;63257;55.082;38.772;2023-08-20T13:49:56;7.38;;;4.30;;
71947;SDS011;63257;55.082;38.772;2023-08-20T13:52:22;9.18;;;4.25;;
71947;SDS011;63257;55.082;38.772;2023-08-20T13:54:48;8.17;;;4.40;;
71947;SDS011;63257;55.082;38.772;2023-08-20T13:57:14;8.50;;;4.78;;
71947;SDS011;63257;55.082;38.772;2023-08-20T13:59:39;10.37;;;5.30;;
71947;SDS011;63257;55.082;38.772;2023-08-20T14:02:05;8.00;;;4.47;;
71947;SDS011;63257;55.082;38.772;2023-08-20T14:04:31;10.82;;;5.10;;
71947;SDS011;63257;55.082;38.772;2023-08-20T14:06:57;10.43;;;4.77;;
71947;SDS011;63257;55.082;38.772;2023-08-20T14:09:22;8.07;;;4.65;;
71947;SDS011;63257;55.082;38.772;2023-08-20T14:11:48;11.97;;;4.77;;
71947;SDS011;63257;55.082;38.772;2023-08-20T14:14:14;8.85;;;5.63;;
71947;SDS011;63257;55.082;38.772;2023-08-20T14:16:40;10.53;;;5.27;;
71947;SDS011;63257;55.082;38.772;2023-08-20T14:19:06;9.43;;;5.30;;
71947;SDS011;63257;55.082;38.772;2023-08-20T14:21:31;10.23;;;5.77;;
71947;SDS011;63257;55.082;38.772;2023-08-20T14:23:57;9.77;;;5.28;;
71947;SDS011;63257;55.082;38.772;2023-08-20T14:26:23;10.35;;;5.82;;
71947;SDS011;63257;55.082;38.772;2023-08-20T14:28:50;9.47;;;5.07;;
71947;SDS011;63257;55.082;38.772;2023-08-20T14:31:15;9.88;;;5.35;;
71947;SDS011;63257;55.082;38.772;2023-08-20T14:33:42;9.90;;;5.50;;
71947;SDS011;63257;55.082;38.772;2023-08-20T14:36:07;9.23;;;5.00;;
71947;SDS011;63257;55.082;38.772;2023-08-20T14:38:34;9.67;;;5.47;;
71947;SDS011;63257;55.082;38.772;2023-08-20T14:41:00;9.35;;;5.75;;
71947;SDS011;63257;55.082;38.772;2023-08-20T14:43:27;11.73;;;7.25;;